Time;durP1;ratioP1;P1;durP2;ratioP2;P2;SDS_P1;SDS_P2;PMS_P1;PMS_P2;Temp;Humidity;BMP_temperature;BMP_pressure;BME280_temperature;BME280_humidity;BME280_pressure;Samples;Min_cycle;Max_cycle;Signal;HPM_P1;HPM_P2
2022/08/07 00:01:41;;;;;;;0.00;0.00;;;8.70;99.90;;;;;;4960361;28;20077;-75
2022/08/07 00:04:07;;;;;;;0.10;0.10;;;8.60;99.90;;;;;;4959869;28;20082;-75
2022/08/07 00:06:33;;;;;;;0.00;0.00;;;8.60;99.90;;;;;;4960214;28;20055;-76
2022/08/07 00:08:59;;;;;;;0.00;0.00;;;8.50;99.90;;;;;;4959855;28;20515;-76
2022/08/07 00:11:25;;;;;;;0.30;0.30;;;8.40;99.90;;;;;;4960086;28;20058;-76
2022/08/07 00:13:50;;;;;;;0.52;0.22;;;8.40;99.90;;;;;;4960640;28;20036;-76
2022/08/07 00:16:16;;;;;;;0.22;0.20;;;8.40;99.90;;;;;;4960486;28;20098;-76
2022/08/07 00:18:41;;;;;;;0.20;0.17;;;8.30;99.90;;;;;;4960160;28;20047;-75
2022/08/07 00:21:08;;;;;;;0.10;0.10;;;8.50;99.90;;;;;;4960104;28;20122;-75
2022/08/07 00:23:36;;;;;;;0.43;0.43;;;8.50;99.90;;;;;;4960250;28;20401;-76
2022/08/07 00:26:04;;;;;;;0.08;0.08;;;8.50;99.90;;;;;;4960906;28;20043;-76
2022/08/07 00:28:31;;;;;;;0.00;0.00;;;8.50;99.90;;;;;;4963012;28;20057;-76
2022/08/07 00:30:56;;;;;;;0.20;0.20;;;8.50;99.90;;;;;;4965599;28;20594;-76
2022/08/07 00:33:25;;;;;;;0.63;0.57;;;8.50;99.90;;;;;;4965196;28;20079;-76
2022/08/07 00:35:52;;;;;;;0.22;0.10;;;8.40;99.90;;;;;;4965544;28;20397;-77
2022/08/07 00:38:17;;;;;;;0.00;0.00;;;8.40;99.90;;;;;;4966507;28;20120;-75
2022/08/07 00:40:43;;;;;;;0.00;0.00;;;8.40;99.90;;;;;;4966677;28;20047;-75
2022/08/07 00:43:10;;;;;;;0.00;0.00;;;8.40;99.90;;;;;;4971417;28;20035;-75
2022/08/07 00:45:40;;;;;;;0.30;0.28;;;8.40;99.90;;;;;;4975900;28;20058;-76
2022/08/07 00:48:08;;;;;;;0.15;0.08;;;8.40;99.90;;;;;;4972296;28;20043;-74
2022/08/07 00:50:34;;;;;;;0.00;0.00;;;8.60;99.90;;;;;;4959958;28;20047;-75
2022/08/07 00:53:00;;;;;;;0.32;0.32;;;8.50;99.90;;;;;;4959045;28;20061;-74
2022/08/07 00:55:27;;;;;;;0.13;0.13;;;8.60;99.90;;;;;;4958161;28;20051;-74
2022/08/07 00:57:52;;;;;;;0.00;0.00;;;8.60;99.90;;;;;;4958600;28;20098;-76
2022/08/07 01:00:18;;;;;;;0.20;0.20;;;8.50;99.90;;;;;;4958998;28;20047;-76
2022/08/07 01:02:45;;;;;;;0.00;0.00;;;8.50;99.90;;;;;;4958702;28;20118;-76
2022/08/07 01:05:11;;;;;;;0.00;0.00;;;8.40;99.90;;;;;;4958689;28;20054;-77
2022/08/07 01:07:38;;;;;;;0.00;0.00;;;8.40;99.90;;;;;;4957928;28;20122;-76
2022/08/07 01:10:05;;;;;;;0.00;0.00;;;8.40;99.90;;;;;;4958126;28;20478;-76
2022/08/07 01:12:34;;;;;;;0.38;0.38;;;8.30;99.90;;;;;;4956929;28;20363;-75
2022/08/07 01:15:00;;;;;;;0.00;0.00;;;8.30;99.90;;;;;;4958391;28;20433;-76
2022/08/07 01:17:26;;;;;;;0.13;0.13;;;8.30;99.90;;;;;;4957875;28;20047;-77
2022/08/07 01:19:57;;;;;;;0.00;0.00;;;8.30;99.90;;;;;;4958072;28;20043;-77
2022/08/07 01:22:23;;;;;;;0.30;0.22;;;8.30;99.90;;;;;;4958120;28;20082;-77
2022/08/07 01:24:50;;;;;;;0.10;0.10;;;8.30;99.90;;;;;;4958009;28;20050;-76
2022/08/07 01:27:15;;;;;;;0.10;0.10;;;8.20;99.90;;;;;;4957169;29;20051;-76
2022/08/07 01:29:42;;;;;;;0.00;0.00;;;9.20;99.90;;;;;;4958285;28;20414;-76
2022/08/07 01:32:07;;;;;;;0.00;0.00;;;8.30;99.90;;;;;;4958117;28;20039;-77
2022/08/07 01:34:33;;;;;;;0.68;0.55;;;8.50;99.90;;;;;;4957665;28;20094;-76
2022/08/07 01:37:00;;;;;;;0.38;0.15;;;8.20;99.90;;;;;;4957757;28;20051;-74
2022/08/07 01:39:26;;;;;;;0.10;0.10;;;8.20;99.90;;;;;;4940795;29;20044;-76
2022/08/07 01:41:53;;;;;;;0.10;0.10;;;8.20;99.90;;;;;;4957485;28;20043;-74
2022/08/07 01:44:19;;;;;;;0.00;0.00;;;8.10;99.90;;;;;;4956111;28;20047;-74
2022/08/07 01:46:44;;;;;;;0.00;0.00;;;8.10;99.90;;;;;;4957332;28;20070;-75
2022/08/07 01:49:11;;;;;;;0.08;0.05;;;9.30;99.90;;;;;;4956664;28;20085;-75
2022/08/07 01:51:37;;;;;;;0.40;0.20;;;8.10;99.90;;;;;;4956963;28;20047;-75
2022/08/07 01:54:07;;;;;;;0.65;0.43;;;8.10;99.90;;;;;;4957127;28;20051;-76
2022/08/07 01:56:40;;;;;;;0.00;0.00;;;8.00;99.90;;;;;;5027914;23;20038;-74
2022/08/07 01:59:33;;;;;;;0.00;0.00;;;8.00;99.90;;;;;;4995888;28;20047;-71
2022/08/07 02:02:04;;;;;;;0.38;0.38;;;7.90;99.90;;;;;;4985120;28;20114;-72
2022/08/07 02:04:34;;;;;;;0.35;0.30;;;7.90;99.90;;;;;;4993393;28;20043;-76
2022/08/07 02:07:02;;;;;;;0.20;0.20;;;7.90;99.90;;;;;;4992318;28;20039;-71
2022/08/07 02:09:30;;;;;;;0.00;0.00;;;7.90;99.90;;;;;;4990695;28;20058;-72
2022/08/07 02:11:56;;;;;;;0.20;0.20;;;7.80;99.90;;;;;;4991420;28;20043;-71
2022/08/07 02:14:25;;;;;;;0.00;0.00;;;7.80;99.90;;;;;;5004225;28;20042;-71
2022/08/07 02:16:53;;;;;;;1.70;0.55;;;7.90;99.90;;;;;;5012022;28;20057;-71
2022/08/07 02:19:20;;;;;;;0.00;0.00;;;7.80;99.90;;;;;;5011794;28;20057;-72
2022/08/07 02:21:46;;;;;;;1.65;1.35;;;7.90;99.90;;;;;;5010786;28;20042;-72
2022/08/07 02:24:14;;;;;;;0.00;0.00;;;7.90;99.90;;;;;;5009939;28;20126;-71
2022/08/07 02:26:40;;;;;;;0.35;0.35;;;7.80;99.90;;;;;;5011140;28;20042;-72
2022/08/07 02:29:08;;;;;;;0.17;0.13;;;7.90;99.90;;;;;;5011391;28;20050;-71
2022/08/07 02:31:35;;;;;;;0.10;0.10;;;7.80;99.90;;;;;;5009712;28;20043;-71
2022/08/07 02:34:04;;;;;;;0.05;0.05;;;7.70;99.90;;;;;;5010646;28;20073;-72
2022/08/07 02:36:31;;;;;;;0.00;0.00;;;7.70;99.90;;;;;;5009646;28;20066;-71
2022/08/07 02:39:00;;;;;;;0.00;0.00;;;7.70;99.90;;;;;;5009367;28;20117;-71
2022/08/07 02:41:26;;;;;;;0.00;0.00;;;7.60;99.90;;;;;;5010701;28;20126;-71
2022/08/07 02:43:53;;;;;;;0.00;0.00;;;7.60;99.90;;;;;;5010275;28;20042;-71
2022/08/07 02:46:22;;;;;;;0.10;0.10;;;7.60;99.90;;;;;;5010178;28;20045;-72
2022/08/07 02:48:47;;;;;;;0.00;0.00;;;7.60;99.90;;;;;;5010141;28;20081;-73
2022/08/07 02:51:17;;;;;;;0.00;0.00;;;7.60;99.90;;;;;;5012761;28;20038;-71
2022/08/07 02:53:45;;;;;;;0.10;0.10;;;7.60;99.90;;;;;;5012176;28;20049;-72
2022/08/07 02:56:13;;;;;;;0.00;0.00;;;7.60;99.90;;;;;;5010661;28;20085;-73
2022/08/07 02:58:41;;;;;;;0.00;0.00;;;7.60;99.90;;;;;;5011499;28;20479;-71
2022/08/07 03:01:08;;;;;;;0.13;0.10;;;7.50;99.90;;;;;;5011869;28;20042;-71
2022/08/07 03:03:35;;;;;;;0.10;0.10;;;7.50;99.90;;;;;;5012639;28;20054;-72
2022/08/07 03:06:02;;;;;;;0.00;0.00;;;7.50;99.90;;;;;;5011708;28;20498;-72
2022/08/07 03:08:28;;;;;;;0.00;0.00;;;8.40;99.90;;;;;;5012343;28;20042;-71
2022/08/07 03:10:55;;;;;;;1.17;0.55;;;7.50;99.90;;;;;;5013180;28;20050;-71
2022/08/07 03:13:20;;;;;;;0.10;0.10;;;7.50;99.90;;;;;;5012252;28;20053;-71
2022/08/07 03:15:47;;;;;;;0.17;0.15;;;7.50;99.90;;;;;;5013235;28;20069;-72
2022/08/07 03:18:14;;;;;;;0.17;0.17;;;7.50;99.90;;;;;;5014373;28;20587;-72
2022/08/07 03:20:40;;;;;;;0.03;0.03;;;7.50;99.90;;;;;;5014759;28;20050;-72
2022/08/07 03:23:08;;;;;;;0.00;0.00;;;7.50;99.90;;;;;;5015634;28;20046;-71
2022/08/07 03:25:36;;;;;;;0.38;0.32;;;7.50;99.90;;;;;;5016197;28;20070;-72
2022/08/07 03:28:03;;;;;;;0.10;0.10;;;7.50;99.90;;;;;;5016516;28;20038;-71
2022/08/07 03:30:31;;;;;;;0.10;0.10;;;7.40;99.90;;;;;;5015930;28;20030;-72
2022/08/07 03:32:59;;;;;;;0.20;0.20;;;7.40;99.90;;;;;;5015574;28;20081;-72
2022/08/07 03:35:27;;;;;;;0.10;0.10;;;7.40;99.90;;;;;;5014659;28;20029;-72
2022/08/07 03:37:57;;;;;;;0.63;0.17;;;7.50;99.90;;;;;;5014027;28;20093;-71
2022/08/07 03:40:24;;;;;;;0.00;0.00;;;7.40;99.90;;;;;;5014239;28;20041;-71
2022/08/07 03:42:54;;;;;;;0.10;0.10;;;7.40;99.90;;;;;;5015312;28;20054;-71
2022/08/07 03:45:21;;;;;;;0.00;0.00;;;7.40;99.90;;;;;;5015468;28;20039;-73
2022/08/07 03:47:48;;;;;;;1.48;0.60;;;7.40;99.90;;;;;;5014572;28;20050;-72
2022/08/07 03:50:14;;;;;;;0.00;0.00;;;7.40;99.90;;;;;;5014803;28;20047;-71
2022/08/07 03:52:41;;;;;;;0.10;0.10;;;7.40;99.90;;;;;;5013678;28;20126;-71
2022/08/07 03:55:07;;;;;;;0.80;0.50;;;7.30;99.90;;;;;;5014168;28;20061;-73
2022/08/07 03:57:34;;;;;;;0.35;0.08;;;7.30;99.90;;;;;;5013281;28;20101;-71
2022/08/07 04:00:00;;;;;;;0.65;0.40;;;7.30;99.90;;;;;;5014722;28;20485;-72
2022/08/07 04:02:26;;;;;;;0.00;0.00;;;7.30;99.90;;;;;;5014324;28;20043;-72
2022/08/07 04:04:52;;;;;;;0.00;0.00;;;7.30;99.90;;;;;;5013104;28;20070;-74
2022/08/07 04:07:18;;;;;;;2.30;1.02;;;7.30;99.90;;;;;;5015524;28;20053;-72
2022/08/07 04:09:48;;;;;;;0.13;0.10;;;7.40;99.90;;;;;;5016146;28;20053;-72
2022/08/07 04:12:13;;;;;;;0.00;0.00;;;7.40;99.90;;;;;;5016792;28;20489;-72
2022/08/07 04:14:41;;;;;;;0.10;0.10;;;7.40;99.90;;;;;;5015725;28;20070;-71
2022/08/07 04:17:07;;;;;;;0.82;0.40;;;7.40;99.90;;;;;;5016769;28;20061;-72
2022/08/07 04:19:33;;;;;;;0.10;0.10;;;7.40;99.90;;;;;;5017205;28;20046;-72
2022/08/07 04:22:00;;;;;;;2.28;0.40;;;7.50;99.90;;;;;;5018074;28;20058;-72
2022/08/07 04:24:26;;;;;;;0.28;0.28;;;7.50;99.90;;;;;;5019448;28;20080;-73
2022/08/07 04:26:52;;;;;;;0.00;0.00;;;7.50;99.90;;;;;;5018906;28;20042;-72
2022/08/07 04:29:17;;;;;;;0.20;0.20;;;7.50;99.90;;;;;;5018570;28;20037;-71
2022/08/07 04:31:44;;;;;;;0.28;0.28;;;7.50;99.90;;;;;;5019707;28;20037;-72
2022/08/07 04:34:10;;;;;;;0.65;0.65;;;7.50;99.90;;;;;;5019269;28;20026;-71
2022/08/07 04:36:36;;;;;;;0.13;0.13;;;7.60;99.90;;;;;;5018949;28;20122;-72
2022/08/07 04:39:03;;;;;;;0.00;0.00;;;7.60;99.90;;;;;;5018989;28;20044;-72
2022/08/07 04:41:29;;;;;;;0.00;0.00;;;7.60;99.90;;;;;;5019732;28;20068;-72
2022/08/07 04:43:56;;;;;;;0.17;0.17;;;7.60;99.90;;;;;;5018799;28;20044;-71
2022/08/07 04:46:57;;;;;;;0.00;0.00;;;7.70;99.90;;;;;;5018922;28;20042;-71
2022/08/07 04:49:36;;;;;;;0.00;0.00;;;7.80;99.90;;;;;;5010470;28;20092;-72
2022/08/07 04:52:07;;;;;;;0.08;0.08;;;7.80;99.90;;;;;;5018398;28;20623;-71
2022/08/07 04:55:01;;;;;;;1.02;0.52;;;7.80;99.90;;;;;;5018002;28;20102;-72
2022/08/07 04:57:31;;;;;;;0.00;0.00;;;7.90;99.90;;;;;;5013817;28;20142;-72
2022/08/07 05:00:47;;;;;;;0.10;0.10;;;8.00;99.90;;;;;;5017584;28;20034;-72
2022/08/07 05:03:25;;;;;;;0.00;0.00;;;8.10;99.90;;;;;;5001266;28;20054;-72
2022/08/07 05:06:01;;;;;;;0.00;0.00;;;8.20;99.90;;;;;;5018757;28;20047;-72
2022/08/07 05:08:52;;;;;;;0.00;0.00;;;8.30;99.90;;;;;;5018059;28;20066;-71
2022/08/07 05:11:31;;;;;;;0.00;0.00;;;8.30;99.90;;;;;;5017850;28;20039;-72
2022/08/07 05:14:10;;;;;;;0.52;0.52;;;8.40;99.90;;;;;;5016350;28;20049;-71
2022/08/07 05:16:38;;;;;;;0.15;0.15;;;8.50;99.90;;;;;;5015162;28;20050;-72
2022/08/07 05:19:10;;;;;;;0.08;0.08;;;8.60;99.90;;;;;;5015239;28;20039;-72
2022/08/07 05:21:37;;;;;;;0.38;0.30;;;8.70;99.90;;;;;;5016398;28;20042;-72
2022/08/07 05:24:08;;;;;;;4.15;1.25;;;8.80;99.90;;;;;;5015351;28;20061;-72
2022/08/07 05:26:35;;;;;;;0.10;0.10;;;9.00;99.90;;;;;;5018203;28;20026;-74
2022/08/07 05:29:03;;;;;;;0.32;0.32;;;9.10;99.90;;;;;;5017101;28;20074;-72
2022/08/07 05:31:32;;;;;;;1.48;0.30;;;9.30;99.90;;;;;;5017811;28;20097;-73
2022/08/07 05:33:59;;;;;;;0.13;0.13;;;9.40;99.90;;;;;;5016892;28;20053;-71
2022/08/07 05:36:26;;;;;;;0.03;0.00;;;9.60;99.90;;;;;;5016560;28;20041;-72
2022/08/07 05:38:53;;;;;;;0.00;0.00;;;9.70;99.90;;;;;;5016444;28;20051;-72
2022/08/07 05:41:19;;;;;;;0.20;0.20;;;9.80;99.90;;;;;;5016359;28;20023;-72
2022/08/07 05:43:48;;;;;;;0.65;0.47;;;9.90;99.90;;;;;;5016656;28;20073;-73
2022/08/07 05:46:15;;;;;;;0.00;0.00;;;10.10;99.90;;;;;;5017773;28;20065;-73
2022/08/07 05:48:41;;;;;;;0.08;0.08;;;10.20;99.90;;;;;;5017653;28;20066;-72
2022/08/07 05:51:08;;;;;;;1.35;0.20;;;10.30;99.90;;;;;;5016473;28;20034;-72
2022/08/07 05:53:33;;;;;;;1.63;0.52;;;10.50;99.90;;;;;;5015891;28;20528;-72
2022/08/07 05:56:01;;;;;;;0.17;0.15;;;10.70;99.90;;;;;;5015599;28;20029;-72
2022/08/07 05:58:26;;;;;;;0.10;0.10;;;10.80;99.90;;;;;;5016185;28;20052;-73
2022/08/07 06:00:53;;;;;;;0.30;0.30;;;11.00;99.90;;;;;;5014433;28;20038;-73
2022/08/07 06:03:21;;;;;;;0.15;0.15;;;11.40;99.90;;;;;;5014490;28;20022;-72
2022/08/07 06:05:47;;;;;;;0.30;0.28;;;11.90;99.90;;;;;;5014846;28;20102;-75
2022/08/07 06:08:15;;;;;;;0.00;0.00;;;12.20;99.90;;;;;;4995856;28;20102;-72
2022/08/07 06:10:42;;;;;;;0.30;0.30;;;13.00;99.90;;;;;;4996811;28;20091;-73
2022/08/07 06:13:08;;;;;;;0.90;0.45;;;14.00;99.90;;;;;;4995749;28;20097;-73
2022/08/07 06:15:35;;;;;;;1.13;0.85;;;15.20;99.90;;;;;;4996260;28;20058;-74
2022/08/07 06:18:02;;;;;;;0.20;0.20;;;16.30;99.90;;;;;;4996721;28;20042;-72
2022/08/07 06:20:29;;;;;;;0.30;0.30;;;17.40;99.90;;;;;;4996372;28;20102;-72
2022/08/07 06:22:55;;;;;;;0.32;0.30;;;18.30;99.90;;;;;;4996916;28;20034;-73
2022/08/07 06:25:21;;;;;;;0.38;0.35;;;19.20;99.90;;;;;;4996501;28;20074;-73
2022/08/07 06:27:47;;;;;;;1.13;0.70;;;20.20;99.90;;;;;;4997212;28;20054;-73
2022/08/07 06:30:13;;;;;;;0.25;0.22;;;21.00;99.90;;;;;;4997294;28;20043;-74
2022/08/07 06:32:39;;;;;;;1.13;0.98;;;21.70;99.90;;;;;;4996931;28;20055;-73
2022/08/07 06:35:04;;;;;;;0.30;0.30;;;22.20;99.90;;;;;;4997840;28;20043;-74
2022/08/07 06:37:30;;;;;;;0.43;0.43;;;22.70;99.90;;;;;;4996800;28;20038;-74
2022/08/07 06:39:56;;;;;;;1.75;0.60;;;23.10;99.90;;;;;;4997277;28;20038;-74
2022/08/07 06:42:36;;;;;;;0.10;0.10;;;23.50;99.90;;;;;;4996942;28;20069;-73
2022/08/07 06:45:05;;;;;;;0.68;0.60;;;23.70;96.10;;;;;;4996933;28;20038;-73
2022/08/07 06:47:30;;;;;;;0.68;0.50;;;23.80;74.30;;;;;;4996943;28;20031;-73
2022/08/07 06:49:56;;;;;;;0.22;0.22;;;23.70;60.30;;;;;;4998355;28;20054;-74
2022/08/07 06:52:26;;;;;;;0.60;0.57;;;23.70;51.50;;;;;;4998377;28;20057;-73
2022/08/07 06:54:52;;;;;;;0.55;0.52;;;24.00;81.90;;;;;;4998216;28;20057;-75
2022/08/07 06:57:19;;;;;;;0.63;0.50;;;24.20;55.90;;;;;;4998138;28;20038;-73
2022/08/07 06:59:46;;;;;;;0.45;0.10;;;24.50;72.90;;;;;;4996777;28;20058;-73
2022/08/07 07:02:17;;;;;;;0.10;0.10;;;24.70;37.30;;;;;;4998657;28;20086;-76
2022/08/07 07:04:44;;;;;;;0.17;0.17;;;25.10;51.60;;;;;;4998220;28;20019;-74
2022/08/07 07:07:10;;;;;;;0.38;0.20;;;25.10;30.80;;;;;;4997785;28;20041;-74
2022/08/07 07:09:37;;;;;;;0.15;0.15;;;25.20;25.10;;;;;;4997329;28;20074;-77
2022/08/07 07:12:05;;;;;;;1.45;0.50;;;25.10;23.10;;;;;;4998040;28;20082;-76
2022/08/07 07:14:36;;;;;;;0.20;0.20;;;25.50;37.10;;;;;;4996266;28;20054;-76
2022/08/07 07:17:08;;;;;;;1.70;0.47;;;25.80;29.20;;;;;;4993685;28;20306;-77
2022/08/07 07:19:39;;;;;;;1.00;0.57;;;25.90;23.90;;;;;;4983225;28;20043;-76
2022/08/07 07:22:07;;;;;;;0.38;0.30;;;26.00;15.80;;;;;;4993870;28;20246;-76
2022/08/07 07:24:33;;;;;;;0.65;0.60;;;26.10;13.60;;;;;;4992451;28;20035;-77
2022/08/07 07:27:02;;;;;;;1.17;0.43;;;26.10;10.30;;;;;;4993381;28;20046;-76
2022/08/07 07:29:33;;;;;;;0.28;0.28;;;26.00;14.10;;;;;;4994518;28;20034;-77
2022/08/07 07:32:03;;;;;;;0.75;0.20;;;26.10;8.40;;;;;;4993418;28;20035;-77
2022/08/07 07:34:31;;;;;;;0.10;0.10;;;26.20;6.10;;;;;;4994683;28;20062;-76
2022/08/07 07:37:03;;;;;;;0.30;0.15;;;26.70;9.70;;;;;;4991784;28;20081;-75
2022/08/07 07:39:31;;;;;;;0.45;0.17;;;27.00;4.60;;;;;;4992069;28;20043;-77
2022/08/07 07:42:00;;;;;;;0.45;0.15;;;27.40;1.00;;;;;;4997893;28;20038;-76
2022/08/07 07:44:27;;;;;;;1.00;0.38;;;27.50;1.00;;;;;;4998495;28;20098;-76
2022/08/07 07:46:55;;;;;;;0.00;0.00;;;27.40;1.00;;;;;;4997613;28;20039;-76
2022/08/07 07:49:22;;;;;;;0.10;0.10;;;26.90;1.00;;;;;;4997626;28;20082;-75
2022/08/07 07:51:48;;;;;;;0.10;0.10;;;26.90;1.00;;;;;;4998176;28;20019;-76
2022/08/07 07:54:15;;;;;;;1.45;0.43;;;27.20;1.00;;;;;;4998955;28;20094;-75
2022/08/07 07:56:43;;;;;;;0.15;0.15;;;27.50;1.00;;;;;;4997547;28;20051;-76
2022/08/07 07:59:09;;;;;;;0.10;0.10;;;27.60;1.00;;;;;;4994776;28;20082;-75
2022/08/07 08:01:39;;;;;;;0.00;0.00;;;26.90;1.00;;;;;;4990615;28;20100;-73
2022/08/07 08:04:06;;;;;;;0.38;0.13;;;27.30;1.00;;;;;;4987243;28;20042;-73
2022/08/07 08:06:33;;;;;;;0.00;0.00;;;27.50;1.00;;;;;;4986003;28;20047;-73
2022/08/07 08:09:01;;;;;;;0.17;0.17;;;27.30;1.00;;;;;;4980568;28;20393;-73
2022/08/07 08:11:29;;;;;;;1.55;0.28;;;26.80;1.00;;;;;;4983348;28;20070;-73
2022/08/07 08:13:55;;;;;;;0.10;0.00;;;27.10;1.00;;;;;;4985915;28;20517;-73
2022/08/07 08:16:27;;;;;;;0.32;0.25;;;27.10;1.00;;;;;;4989753;28;20074;-74
2022/08/07 08:18:55;;;;;;;0.95;0.70;;;27.40;1.00;;;;;;4984261;28;20073;-74
2022/08/07 08:27:04;;;;;;;0.10;0.10;;;27.40;1.00;;;;;;4988032;28;20126;-74
2022/08/07 08:29:49;;;;;;;0.30;0.30;;;27.50;1.00;;;;;;4989609;28;20055;-73
2022/08/07 08:32:19;;;;;;;0.20;0.20;;;27.90;1.00;;;;;;4977929;28;20061;-73
2022/08/07 08:34:49;;;;;;;0.20;0.20;;;27.90;1.00;;;;;;4984540;28;20047;-75
2022/08/07 08:37:16;;;;;;;0.43;0.20;;;28.30;1.00;;;;;;4984417;28;20044;-73
2022/08/07 08:39:43;;;;;;;0.00;0.00;;;27.90;1.00;;;;;;4985646;28;20070;-73
2022/08/07 08:42:26;;;;;;;0.63;0.45;;;27.70;1.00;;;;;;4986632;28;20565;-73
2022/08/07 08:45:04;;;;;;;0.17;0.13;;;27.50;1.00;;;;;;4987360;28;20047;-74
2022/08/07 08:48:07;;;;;;;0.40;0.35;;;27.60;1.00;;;;;;4987674;28;20069;-73
2022/08/07 08:50:51;;;;;;;0.15;0.15;;;28.00;1.00;;;;;;4989144;28;20042;-73
2022/08/07 08:53:41;;;;;;;0.75;0.47;;;28.40;1.00;;;;;;4988129;28;20509;-74
2022/08/07 08:56:29;;;;;;;0.00;0.00;;;28.30;1.00;;;;;;4983931;28;20110;-73
2022/08/07 08:59:13;;;;;;;0.30;0.10;;;27.30;1.00;;;;;;4986653;28;20053;-72
2022/08/07 09:02:12;;;;;;;0.28;0.28;;;27.60;1.00;;;;;;4985079;28;20118;-72
2022/08/07 09:04:48;;;;;;;0.00;0.00;;;27.00;1.00;;;;;;4986720;28;20043;-73
2022/08/07 09:07:22;;;;;;;0.10;0.10;;;28.20;1.00;;;;;;4990160;28;20383;-72
2022/08/07 09:09:58;;;;;;;0.00;0.00;;;28.20;1.00;;;;;;4987041;28;20054;-71
2022/08/07 09:12:49;;;;;;;0.47;0.30;;;28.10;1.00;;;;;;4978937;28;20469;-72
2022/08/07 09:15:42;;;;;;;0.57;0.47;;;28.00;1.00;;;;;;4977359;28;20042;-71
2022/08/07 09:18:44;;;;;;;0.28;0.25;;;28.00;1.00;;;;;;4974063;28;20053;-72
2022/08/07 09:21:25;;;;;;;0.10;0.10;;;28.30;1.00;;;;;;4972781;28;20043;-74
2022/08/07 09:23:56;;;;;;;0.05;0.05;;;26.90;1.00;;;;;;4972736;28;20054;-73
2022/08/07 09:26:27;;;;;;;0.63;0.55;;;26.30;1.00;;;;;;4973519;28;20501;-73
2022/08/07 09:29:01;;;;;;;0.10;0.10;;;26.90;1.00;;;;;;4975055;28;20058;-72
2022/08/07 09:31:31;;;;;;;0.00;0.00;;;27.20;1.00;;;;;;4973676;28;20050;-74
2022/08/07 09:34:20;;;;;;;0.40;0.22;;;27.40;1.00;;;;;;4973420;28;20148;-73
2022/08/07 09:37:01;;;;;;;0.08;0.08;;;27.20;1.00;;;;;;4975241;28;20054;-73
2022/08/07 09:39:45;;;;;;;2.05;0.68;;;27.40;1.00;;;;;;4977613;28;20050;-74
2022/08/07 09:42:28;;;;;;;0.75;0.52;;;27.40;1.00;;;;;;4977831;28;20070;-72
2022/08/07 09:45:32;;;;;;;0.05;0.05;;;27.20;1.00;;;;;;4978279;28;20054;-71
2022/08/07 09:48:01;;;;;;;0.70;0.13;;;27.10;1.00;;;;;;4979444;28;20046;-72
2022/08/07 09:50:48;;;;;;;1.88;0.55;;;27.20;1.00;;;;;;4978051;28;20049;-71
2022/08/07 09:53:16;;;;;;;0.00;0.00;;;26.80;1.00;;;;;;4976797;28;20085;-72
2022/08/07 09:56:18;;;;;;;0.50;0.40;;;26.60;1.00;;;;;;4975140;28;20039;-72
2022/08/07 09:58:52;;;;;;;0.00;0.00;;;25.90;1.00;;;;;;4974832;28;20134;-72
2022/08/07 10:01:50;;;;;;;0.00;0.00;;;25.80;1.00;;;;;;4977958;28;20043;-73
2022/08/07 10:04:53;;;;;;;0.15;0.10;;;25.80;1.00;;;;;;4955872;28;20065;-73
2022/08/07 10:07:43;;;;;;;0.00;0.00;;;25.70;1.00;;;;;;4980013;28;20047;-73
2022/08/07 10:10:33;;;;;;;0.00;0.00;;;25.60;1.00;;;;;;4976924;28;20105;-72
2022/08/07 10:13:23;;;;;;;0.47;0.22;;;25.60;1.00;;;;;;4977290;28;20051;-73
2022/08/07 10:15:53;;;;;;;0.10;0.10;;;25.60;1.00;;;;;;4960361;29;20126;-73
2022/08/07 10:18:43;;;;;;;0.00;0.00;;;25.60;1.00;;;;;;4962545;29;20057;-73
2022/08/07 10:21:47;;;;;;;0.22;0.13;;;25.10;1.00;;;;;;4961921;28;20474;-73
2022/08/07 10:24:59;;;;;;;0.50;0.38;;;25.10;1.00;;;;;;4965642;28;20430;-74
2022/08/07 10:27:50;;;;;;;0.00;0.00;;;25.10;1.00;;;;;;4927225;29;20044;-74
2022/08/07 10:30:31;;;;;;;0.10;0.10;;;25.00;1.00;;;;;;4963293;29;20058;-73
2022/08/07 10:33:34;;;;;;;1.20;0.40;;;25.20;1.00;;;;;;4964144;29;20051;-74
2022/08/07 10:36:08;;;;;;;0.10;0.03;;;25.20;1.00;;;;;;4960202;29;20121;-74
2022/08/07 10:39:01;;;;;;;0.00;0.00;;;25.30;1.00;;;;;;4962877;29;20058;-73
2022/08/07 10:41:37;;;;;;;0.00;0.00;;;25.50;1.00;;;;;;4966757;29;20055;-74
2022/08/07 10:44:21;;;;;;;0.10;0.10;;;25.70;1.00;;;;;;4966374;29;20159;-74
2022/08/07 10:47:00;;;;;;;0.32;0.15;;;25.50;1.00;;;;;;4963685;29;20057;-74
2022/08/07 10:49:38;;;;;;;0.10;0.10;;;25.60;1.00;;;;;;4965520;29;20087;-73
2022/08/07 10:52:45;;;;;;;0.10;0.10;;;25.60;1.00;;;;;;4963025;28;20050;-74
2022/08/07 10:55:19;;;;;;;0.30;0.25;;;25.70;1.00;;;;;;4929159;28;20066;-74
2022/08/07 10:58:16;;;;;;;0.70;0.13;;;25.80;1.00;;;;;;4961234;29;20063;-74
2022/08/07 11:01:28;;;;;;;0.30;0.20;;;25.80;1.00;;;;;;4963197;29;20122;-73
2022/08/07 11:03:58;;;;;;;0.13;0.13;;;25.80;1.00;;;;;;4963060;28;20402;-73
2022/08/07 11:06:46;;;;;;;0.00;0.00;;;25.60;1.00;;;;;;4963767;29;20051;-74
2022/08/07 11:09:33;;;;;;;0.17;0.10;;;25.80;1.00;;;;;;4962711;29;20047;-74
2022/08/07 11:12:09;;;;;;;0.30;0.10;;;26.10;1.00;;;;;;4962238;29;20047;-74
2022/08/07 11:14:40;;;;;;;0.00;0.00;;;26.40;1.00;;;;;;4966824;28;20102;-75
2022/08/07 11:17:29;;;;;;;0.32;0.20;;;26.70;1.00;;;;;;4962752;29;20047;-75
2022/08/07 11:20:09;;;;;;;0.00;0.00;;;27.00;1.00;;;;;;4964345;29;20078;-74
2022/08/07 11:22:54;;;;;;;0.00;0.00;;;27.20;1.00;;;;;;4965143;29;20058;-74
2022/08/07 11:25:51;;;;;;;0.13;0.13;;;27.10;1.00;;;;;;4966035;29;20044;-74
2022/08/07 11:28:23;;;;;;;0.00;0.00;;;27.30;1.00;;;;;;4961754;29;20082;-74
2022/08/07 11:30:58;;;;;;;0.00;0.00;;;27.50;1.00;;;;;;4962278;29;20140;-73
2022/08/07 11:33:44;;;;;;;0.47;0.20;;;28.00;1.00;;;;;;4958256;29;20406;-73
2022/08/07 11:36:33;;;;;;;0.10;0.10;;;27.40;1.00;;;;;;4957976;29;20063;-73
2022/08/07 11:39:15;;;;;;;0.40;0.15;;;28.40;1.00;;;;;;4957739;29;20094;-74
2022/08/07 11:41:55;;;;;;;0.70;0.32;;;29.00;1.00;;;;;;4961375;29;20078;-74
2022/08/07 11:44:35;;;;;;;0.00;0.00;;;29.70;1.00;;;;;;4957730;29;20079;-73
2022/08/07 11:47:32;;;;;;;0.00;0.00;;;29.60;1.00;;;;;;4960855;29;20055;-75
2022/08/07 11:50:15;;;;;;;0.03;0.03;;;31.10;1.00;;;;;;4962509;29;20118;-74
2022/08/07 11:52:43;;;;;;;1.05;0.17;;;31.30;1.00;;;;;;4960798;29;20131;-75
2022/08/07 11:55:25;;;;;;;0.70;0.30;;;31.40;1.00;;;;;;4965357;29;20114;-74
2022/08/07 11:58:20;;;;;;;0.13;0.10;;;31.50;1.00;;;;;;4963445;29;20139;-74
2022/08/07 12:01:07;;;;;;;1.83;0.22;;;31.80;1.00;;;;;;4960554;28;20062;-75
2022/08/07 12:03:59;;;;;;;0.35;0.35;;;31.50;1.00;;;;;;4957692;29;20054;-73
2022/08/07 12:06:44;;;;;;;0.00;0.00;;;31.80;1.00;;;;;;4959459;28;20093;-74
2022/08/07 12:09:21;;;;;;;0.13;0.13;;;31.80;1.00;;;;;;4963051;29;20083;-74
2022/08/07 12:12:09;;;;;;;0.10;0.10;;;32.20;1.00;;;;;;4962586;29;20047;-74
2022/08/07 12:15:06;;;;;;;0.00;0.00;;;32.40;1.00;;;;;;4962809;29;20051;-74
2022/08/07 12:17:46;;;;;;;0.00;0.00;;;32.60;1.00;;;;;;4952551;29;20121;-75
2022/08/07 12:20:45;;;;;;;0.00;0.00;;;32.30;1.00;;;;;;4963625;29;20063;-74
2022/08/07 12:23:33;;;;;;;0.10;0.10;;;32.60;1.00;;;;;;4960890;28;20053;-74
2022/08/07 12:26:05;;;;;;;1.55;0.10;;;33.40;1.00;;;;;;4961097;28;20062;-74
2022/08/07 12:28:56;;;;;;;0.00;0.00;;;32.60;1.00;;;;;;4966259;29;20062;-74
2022/08/07 12:31:34;;;;;;;0.10;0.10;;;32.60;1.00;;;;;;4961380;29;20047;-74
2022/08/07 12:34:01;;;;;;;0.08;0.03;;;32.70;1.00;;;;;;4964511;29;20054;-73
2022/08/07 12:36:28;;;;;;;0.00;0.00;;;32.80;1.00;;;;;;4960244;29;20093;-73
2022/08/07 12:38:55;;;;;;;0.80;0.40;;;33.30;1.00;;;;;;4960091;29;20075;-74
2022/08/07 12:41:24;;;;;;;0.00;0.00;;;33.20;1.00;;;;;;4959748;29;20141;-75
2022/08/07 12:43:52;;;;;;;2.45;0.45;;;32.90;1.00;;;;;;4959399;29;20137;-74
2022/08/07 12:46:41;;;;;;;0.10;0.08;;;31.70;1.00;;;;;;4959747;29;20572;-73
2022/08/07 12:49:32;;;;;;;0.40;0.25;;;31.10;1.00;;;;;;4959084;29;20153;-74
2022/08/07 12:52:27;;;;;;;0.03;0.03;;;31.10;1.00;;;;;;4959047;29;20129;-74
2022/08/07 12:55:11;;;;;;;0.05;0.03;;;31.30;1.00;;;;;;4941123;28;20115;-74
2022/08/07 12:57:39;;;;;;;0.93;0.57;;;32.10;1.00;;;;;;4958606;29;20087;-74
2022/08/07 13:00:10;;;;;;;0.10;0.10;;;30.70;1.00;;;;;;4958712;29;20046;-74
2022/08/07 13:03:04;;;;;;;0.03;0.03;;;29.60;1.00;;;;;;4958625;28;20368;-74
2022/08/07 13:05:54;;;;;;;0.00;0.00;;;29.50;1.00;;;;;;4958614;29;20463;-74
2022/08/07 13:08:47;;;;;;;0.00;0.00;;;30.30;1.00;;;;;;4960532;29;20131;-74
2022/08/07 13:11:35;;;;;;;1.05;0.45;;;30.90;1.00;;;;;;4960152;28;20039;-74
2022/08/07 13:14:36;;;;;;;0.20;0.13;;;31.90;1.00;;;;;;4961677;29;20054;-74
2022/08/07 13:17:19;;;;;;;0.00;0.00;;;32.40;1.00;;;;;;4922793;29;20052;-74
2022/08/07 13:20:10;;;;;;;0.10;0.10;;;31.60;1.00;;;;;;4955637;29;20070;-73
2022/08/07 13:22:54;;;;;;;0.15;0.08;;;31.60;1.00;;;;;;4958289;29;20126;-74
2022/08/07 13:25:30;;;;;;;0.08;0.05;;;31.70;1.00;;;;;;4958794;29;20074;-74
2022/08/07 13:28:11;;;;;;;0.00;0.00;;;31.90;1.00;;;;;;4958405;29;20051;-74
2022/08/07 13:30:42;;;;;;;0.00;0.00;;;31.60;1.00;;;;;;4958695;29;20043;-74
2022/08/07 13:33:30;;;;;;;0.00;0.00;;;31.40;1.00;;;;;;4958272;29;20051;-74
2022/08/07 13:36:07;;;;;;;0.13;0.05;;;32.00;1.00;;;;;;4958276;29;20055;-74